Time,TemperatureF,DewpointF,PressureIn,WindDirection,WindDirectionDegrees,WindSpeedMPH,WindSpeedGustMPH,Humidity,HourlyPrecipIn,Conditions,Clouds,dailyrainin,SoftwareType,DateUTC
2013-11-13 00:00:00,35.1,20.1,30.67,North,355,3.0,4.0,54,0.00,,,0.00,Wunderground v.1.15,2013-11-13 06:00:00,
2013-11-13 00:10:00,34.9,19.9,30.67,North,355,4.0,6.0,54,0.00,,,0.00,Wunderground v.1.15,2013-11-13 06:10:00,
2013-11-13 00:20:00,34.6,20.1,30.67,North,355,3.0,4.0,55,0.00,,,0.00,Wunderground v.1.15,2013-11-13 06:20:00,
2013-11-13 00:30:00,34.3,19.8,30.66,North,355,4.0,5.0,55,0.00,,,0.00,Wunderground v.1.15,2013-11-13 06:30:00,
2013-11-13 00:40:00,34.1,19.6,30.66,North,355,4.0,5.0,55,0.00,,,0.00,Wunderground v.1.15,2013-11-13 06:40:00,
2013-11-13 00:50:00,34.1,19.6,30.67,North,355,4.0,4.0,55,0.00,,,0.00,Wunderground v.1.15,2013-11-13 06:50:00,
2013-11-13 01:00:00,34.1,19.2,30.67,North,355,4.0,4.0,54,0.00,,,0.00,Wunderground v.1.15,2013-11-13 07:00:00,
2013-11-13 01:10:00,33.8,19.7,30.67,North,355,4.0,4.0,56,0.00,,,0.00,Wunderground v.1.15,2013-11-13 07:10:00,
2013-11-13 01:20:00,33.4,19.4,30.67,North,355,3.0,4.0,56,0.00,,,0.00,Wunderground v.1.15,2013-11-13 07:20:00,
2013-11-13 01:30:00,33.3,19.3,30.67,North,355,3.0,3.0,56,0.00,,,0.00,Wunderground v.1.15,2013-11-13 07:30:00,
2013-11-13 01:40:00,33.0,19.4,30.67,North,355,3.0,4.0,57,0.00,,,0.00,Wunderground v.1.15,2013-11-13 07:40:00,
2013-11-13 01:50:00,32.8,19.2,30.67,North,355,4.0,4.0,57,0.00,,,0.00,Wunderground v.1.15,2013-11-13 07:50:00,
2013-11-13 02:00:00,32.5,19.3,30.67,North,355,4.0,4.0,58,0.00,,,0.00,Wunderground v.1.15,2013-11-13 08:00:00,
2013-11-13 02:10:00,32.1,19.8,30.68,North,355,4.0,4.0,60,0.00,,,0.00,Wunderground v.1.15,2013-11-13 08:10:00,
2013-11-13 02:20:00,31.7,19.4,30.68,North,355,4.0,5.0,60,0.00,,,0.00,Wunderground v.1.15,2013-11-13 08:20:00,
2013-11-13 02:30:00,31.5,19.2,30.68,North,355,4.0,4.0,60,0.00,,,0.00,Wunderground v.1.15,2013-11-13 08:30:00,
2013-11-13 02:40:00,31.7,19.0,30.68,North,351,5.0,5.0,59,0.00,,,0.00,Wunderground v.1.15,2013-11-13 08:40:00,
2013-11-13 02:50:00,31.6,18.9,30.68,North,350,4.0,4.0,59,0.00,,,0.00,Wunderground v.1.15,2013-11-13 08:50:00,
2013-11-13 03:00:00,31.3,19.0,30.68,North,350,4.0,4.0,60,0.00,,,0.00,Wunderground v.1.15,2013-11-13 09:00:00,
2013-11-13 03:10:00,31.1,19.2,30.68,North,350,5.0,5.0,61,0.00,,,0.00,Wunderground v.1.15,2013-11-13 09:10:00,
2013-11-13 03:20:00,30.9,19.0,30.67,North,350,5.0,6.0,61,0.00,,,0.00,Wunderground v.1.15,2013-11-13 09:20:00,
2013-11-13 03:30:00,30.7,19.2,30.67,North,350,4.0,5.0,62,0.00,,,0.00,Wunderground v.1.15,2013-11-13 09:30:00,
2013-11-13 03:40:00,30.2,19.1,30.67,North,350,4.0,6.0,63,0.00,,,0.00,Wunderground v.1.15,2013-11-13 09:40:00,
2013-11-13 03:50:00,29.9,19.2,30.67,North,350,3.0,3.0,64,0.00,,,0.00,Wunderground v.1.15,2013-11-13 09:50:00,
2013-11-13 04:00:00,29.6,19.3,30.67,North,350,3.0,3.0,65,0.00,,,0.00,Wunderground v.1.15,2013-11-13 10:00:00,
2013-11-13 04:10:00,29.4,19.1,30.67,North,350,3.0,3.0,65,0.00,,,0.00,Wunderground v.1.15,2013-11-13 10:10:00,
2013-11-13 04:20:00,29.3,19.3,30.67,North,350,4.0,4.0,66,0.00,,,0.00,Wunderground v.1.15,2013-11-13 10:20:00,
2013-11-13 04:30:00,28.8,19.9,30.67,North,350,4.0,4.0,69,0.00,,,0.00,Wunderground v.1.15,2013-11-13 10:30:00,
2013-11-13 04:40:00,28.1,19.6,30.67,NNW,348,5.0,7.0,70,0.00,,,0.00,Wunderground v.1.15,2013-11-13 10:40:00,
2013-11-13 04:50:00,27.8,19.9,30.67,NNW,348,5.0,5.0,72,0.00,,,0.00,Wunderground v.1.15,2013-11-13 10:50:00,
2013-11-13 05:00:00,27.7,19.8,30.67,NNW,348,4.0,4.0,72,0.00,,,0.00,Wunderground v.1.15,2013-11-13 11:00:00,
2013-11-13 05:10:00,27.6,19.8,30.67,NNW,348,5.0,5.0,72,0.00,,,0.00,Wunderground v.1.15,2013-11-13 11:10:00,
2013-11-13 05:20:00,27.5,19.7,30.67,NNW,348,4.0,4.0,72,0.00,,,0.00,Wunderground v.1.15,2013-11-13 11:20:00,
2013-11-13 05:30:00,27.6,19.8,30.66,NNW,348,4.0,4.0,72,0.00,,,0.00,Wunderground v.1.15,2013-11-13 11:30:00,
2013-11-13 05:40:00,27.2,20.3,30.67,NNW,348,4.0,4.0,75,0.00,,,0.00,Wunderground v.1.15,2013-11-13 11:40:00,
2013-11-13 05:50:00,26.6,20.4,30.66,NNW,347,5.0,5.0,77,0.00,,,0.00,Wunderground v.1.15,2013-11-13 11:50:00,
2013-11-13 06:00:00,26.4,20.5,30.67,NNW,347,4.0,7.0,78,0.00,,,0.00,Wunderground v.1.15,2013-11-13 12:00:00,
2013-11-13 06:10:00,26.4,20.5,30.67,NNW,346,5.0,5.0,78,0.00,,,0.00,Wunderground v.1.15,2013-11-13 12:10:00,
2013-11-13 06:20:00,26.3,20.4,30.67,NNW,346,5.0,5.0,78,0.00,,,0.00,Wunderground v.1.15,2013-11-13 12:20:00,
2013-11-13 06:30:00,26.1,20.2,30.67,NNW,345,5.0,5.0,78,0.00,,,0.00,Wunderground v.1.15,2013-11-13 12:30:00,
2013-11-13 06:40:00,25.9,20.3,30.67,NNW,344,5.0,5.0,79,0.00,,,0.00,Wunderground v.1.15,2013-11-13 12:40:00,
2013-11-13 06:50:00,25.9,20.3,30.67,NNW,344,4.0,4.0,79,0.00,,,0.00,Wunderground v.1.15,2013-11-13 12:50:00,
2013-11-13 07:00:00,25.8,20.2,30.67,NNW,344,5.0,5.0,79,0.00,,,0.00,Wunderground v.1.15,2013-11-13 13:00:00,
2013-11-13 07:10:00,25.6,20.3,30.67,NNW,343,5.0,6.0,80,0.00,,,0.00,Wunderground v.1.15,2013-11-13 13:10:00,
2013-11-13 07:20:00,25.8,20.5,30.67,NNW,342,5.0,5.0,80,0.00,,,0.00,Wunderground v.1.15,2013-11-13 13:20:00,
2013-11-13 07:30:00,26.1,20.8,30.67,NNW,342,5.0,6.0,80,0.00,,,0.00,Wunderground v.1.15,2013-11-13 13:30:00,
2013-11-13 07:40:00,26.7,21.1,30.67,NNW,342,3.0,3.0,79,0.00,,,0.00,Wunderground v.1.15,2013-11-13 13:40:00,
2013-11-13 07:50:00,27.3,21.3,30.67,NNW,342,1.0,1.0,78,0.00,,,0.00,Wunderground v.1.15,2013-11-13 13:50:00,
2013-11-13 08:00:00,28.1,21.5,30.67,NNW,342,0.0,0.0,76,0.00,,,0.00,Wunderground v.1.15,2013-11-13 14:00:00,
2013-11-13 08:10:00,29.0,21.7,30.68,NNW,342,0.0,0.0,74,0.00,,,0.00,Wunderground v.1.15,2013-11-13 14:10:00,
2013-11-13 08:20:00,29.8,21.9,30.68,NNW,342,0.0,1.0,72,0.00,,,0.00,Wunderground v.1.15,2013-11-13 14:20:00,
2013-11-13 08:30:00,30.7,22.7,30.68,NNW,342,0.0,0.0,72,0.00,,,0.00,Wunderground v.1.15,2013-11-13 14:30:00,
2013-11-13 08:40:00,32.4,23.0,30.68,NNW,342,0.0,0.0,68,0.00,,,0.00,Wunderground v.1.15,2013-11-13 14:40:00,
2013-11-13 08:50:00,33.8,22.1,30.68,NNW,342,0.0,0.0,62,0.00,,,0.00,Wunderground v.1.15,2013-11-13 14:50:00,
2013-11-13 09:00:00,34.8,22.3,30.68,NNW,342,0.0,0.0,60,0.00,,,0.00,Wunderground v.1.15,2013-11-13 15:00:00,
2013-11-13 09:10:00,35.5,23.4,30.68,NW,306,0.0,0.0,61,0.00,,,0.00,Wunderground v.1.15,2013-11-13 15:10:00,
2013-11-13 09:20:00,36.6,23.6,30.68,NW,306,0.0,0.0,59,0.00,,,0.00,Wunderground v.1.15,2013-11-13 15:20:00,
2013-11-13 09:30:00,37.4,23.5,30.67,NW,307,0.0,0.0,57,0.00,,,0.00,Wunderground v.1.15,2013-11-13 15:30:00,
2013-11-13 09:40:00,38.4,24.5,30.67,WNW,298,0.0,0.0,57,0.00,,,0.00,Wunderground v.1.15,2013-11-13 15:40:00,
2013-11-13 09:50:00,39.1,24.3,30.67,SW,229,0.0,0.0,55,0.00,,,0.00,Wunderground v.1.15,2013-11-13 15:50:00,
2013-11-13 10:00:00,39.8,25.4,30.67,SSE,152,0.0,0.0,56,0.00,,,0.00,Wunderground v.1.15,2013-11-13 16:00:00,
2013-11-13 10:10:00,40.6,25.2,30.67,SSE,150,1.0,1.0,54,0.00,,,0.00,Wunderground v.1.15,2013-11-13 16:10:00,
2013-11-13 10:20:00,40.9,25.5,30.66,SSE,153,1.0,1.0,54,0.00,,,0.00,Wunderground v.1.15,2013-11-13 16:20:00,
2013-11-13 10:30:00,41.5,25.6,30.66,SSE,152,1.0,4.0,53,0.00,,,0.00,Wunderground v.1.15,2013-11-13 16:30:00,
2013-11-13 10:40:00,42.0,26.1,30.66,SSE,157,2.0,5.0,53,0.00,,,0.00,Wunderground v.1.15,2013-11-13 16:40:00,
2013-11-13 10:50:00,42.4,26.0,30.65,SSE,157,1.0,1.0,52,0.00,,,0.00,Wunderground v.1.15,2013-11-13 16:50:00,
2013-11-13 11:00:00,43.5,26.6,30.64,SSE,147,1.0,1.0,51,0.00,,,0.00,Wunderground v.1.15,2013-11-13 17:00:00,
2013-11-13 11:10:00,43.8,26.3,30.64,SSE,147,1.0,1.0,50,0.00,,,0.00,Wunderground v.1.15,2013-11-13 17:10:00,
2013-11-13 11:20:00,44.5,27.0,30.64,SSE,147,0.0,2.0,50,0.00,,,0.00,Wunderground v.1.15,2013-11-13 17:20:00,
2013-11-13 11:30:00,44.6,26.6,30.63,SSE,147,2.0,2.0,49,0.00,,,0.00,Wunderground v.1.15,2013-11-13 17:30:00,
2013-11-13 11:40:00,44.9,27.8,30.62,SSE,147,1.0,2.0,51,0.00,,,0.00,Wunderground v.1.15,2013-11-13 17:40:00,
2013-11-13 11:50:00,45.8,26.7,30.62,SSE,147,1.0,1.0,47,0.00,,,0.00,Wunderground v.1.15,2013-11-13 17:50:00,
2013-11-13 12:00:00,46.1,27.0,30.61,SSE,148,2.0,2.0,47,0.00,,,0.00,Wunderground v.1.15,2013-11-13 18:00:00,
2013-11-13 12:10:00,46.6,27.9,30.60,SSE,147,2.0,4.0,48,0.00,,,0.00,Wunderground v.1.15,2013-11-13 18:10:00,
2013-11-13 12:20:00,46.9,27.7,30.59,SSE,150,3.0,3.0,47,0.00,,,0.00,Wunderground v.1.15,2013-11-13 18:20:00,
2013-11-13 12:30:00,47.4,27.1,30.58,SSE,150,2.0,2.0,45,0.00,,,0.00,Wunderground v.1.15,2013-11-13 18:30:00,
2013-11-13 12:40:00,48.1,27.2,30.57,SSE,150,1.0,5.0,44,0.00,,,0.00,Wunderground v.1.15,2013-11-13 18:40:00,
2013-11-13 12:50:00,48.0,27.1,30.56,SSE,148,2.0,2.0,44,0.00,,,0.00,Wunderground v.1.15,2013-11-13 18:50:00,
2013-11-13 13:00:00,48.6,27.6,30.55,SE,146,1.0,1.0,44,0.00,,,0.00,Wunderground v.1.15,2013-11-13 19:00:00,
2013-11-13 13:10:00,49.2,28.2,30.55,SE,146,1.0,2.0,44,0.00,,,0.00,Wunderground v.1.15,2013-11-13 19:10:00,
2013-11-13 13:20:00,49.4,27.2,30.54,SE,127,3.0,3.0,42,0.00,,,0.00,Wunderground v.1.15,2013-11-13 19:20:00,
2013-11-13 13:30:00,50.0,26.6,30.53,SE,128,1.0,1.0,40,0.00,,,0.00,Wunderground v.1.15,2013-11-13 19:30:00,
2013-11-13 13:40:00,50.8,27.3,30.53,SE,134,2.0,2.0,40,0.00,,,0.00,Wunderground v.1.15,2013-11-13 19:40:00,
2013-11-13 13:50:00,50.6,27.7,30.52,SE,134,1.0,2.0,41,0.00,,,0.00,Wunderground v.1.15,2013-11-13 19:50:00,
2013-11-13 14:00:00,50.5,25.8,30.51,South,181,3.0,3.0,38,0.00,,,0.00,Wunderground v.1.15,2013-11-13 20:00:00,
2013-11-13 14:10:00,50.9,26.8,30.51,South,178,0.0,4.0,39,0.00,,,0.00,Wunderground v.1.15,2013-11-13 20:10:00,
2013-11-13 14:20:00,51.5,27.3,30.50,South,178,1.0,1.0,39,0.00,,,0.00,Wunderground v.1.15,2013-11-13 20:20:00,
2013-11-13 14:30:00,52.2,27.3,30.50,SSE,150,3.0,3.0,38,0.00,,,0.00,Wunderground v.1.15,2013-11-13 20:30:00,
2013-11-13 14:40:00,52.0,27.1,30.50,SSE,156,3.0,3.0,38,0.00,,,0.00,Wunderground v.1.15,2013-11-13 20:40:00,
2013-11-13 14:50:00,52.3,27.4,30.49,SSE,156,1.0,1.0,38,0.00,,,0.00,Wunderground v.1.15,2013-11-13 20:50:00,
2013-11-13 15:00:00,52.6,27.0,30.48,SSE,156,0.0,0.0,37,0.00,,,0.00,Wunderground v.1.15,2013-11-13 21:00:00,
2013-11-13 15:10:00,52.4,26.2,30.47,SSE,155,1.0,1.0,36,0.00,,,0.00,Wunderground v.1.15,2013-11-13 21:10:00,
2013-11-13 15:20:00,52.8,25.9,30.47,SSE,155,1.0,5.0,35,0.00,,,0.00,Wunderground v.1.15,2013-11-13 21:20:00,
2013-11-13 15:30:00,52.8,25.9,30.47,SSE,155,2.0,4.0,35,0.00,,,0.00,Wunderground v.1.15,2013-11-13 21:30:00,
2013-11-13 15:40:00,52.6,25.0,30.47,SSE,155,1.0,1.0,34,0.00,,,0.00,Wunderground v.1.15,2013-11-13 21:40:00,
2013-11-13 15:50:00,52.4,24.8,30.46,SSE,153,2.0,2.0,34,0.00,,,0.00,Wunderground v.1.15,2013-11-13 21:50:00,
2013-11-13 16:00:00,52.2,26.0,30.46,SSE,153,1.0,1.0,36,0.00,,,0.00,Wunderground v.1.15,2013-11-13 22:00:00,
2013-11-13 16:10:00,51.9,25.1,30.45,SSE,154,1.0,4.0,35,0.00,,,0.00,Wunderground v.1.15,2013-11-13 22:10:00,
2013-11-13 16:20:00,51.8,25.7,30.45,SSE,154,1.0,2.0,36,0.00,,,0.00,Wunderground v.1.15,2013-11-13 22:20:00,
2013-11-13 16:30:00,51.8,25.7,30.45,SSE,153,1.0,5.0,36,0.00,,,0.00,Wunderground v.1.15,2013-11-13 22:30:00,
2013-11-13 16:40:00,51.6,25.5,30.44,SSE,151,3.0,3.0,36,0.00,,,0.00,Wunderground v.1.15,2013-11-13 22:40:00,
2013-11-13 16:50:00,51.5,26.1,30.44,SSE,151,3.0,3.0,37,0.00,,,0.00,Wunderground v.1.15,2013-11-13 22:50:00,
2013-11-13 17:00:00,51.4,26.6,30.44,SSE,151,3.0,4.0,38,0.00,,,0.00,Wunderground v.1.15,2013-11-13 23:00:00,
2013-11-13 17:10:00,51.0,26.3,30.43,SSE,151,2.0,2.0,38,0.00,,,0.00,Wunderground v.1.15,2013-11-13 23:10:00,
2013-11-13 17:20:00,50.4,27.6,30.43,SSE,151,2.0,2.0,41,0.00,,,0.00,Wunderground v.1.15,2013-11-13 23:20:00,
2013-11-13 17:30:00,49.6,27.4,30.43,SSE,151,1.0,1.0,42,0.00,,,0.00,Wunderground v.1.15,2013-11-13 23:30:00,
2013-11-13 17:40:00,48.9,27.4,30.43,SSE,151,0.0,0.0,43,0.00,,,0.00,Wunderground v.1.15,2013-11-13 23:40:00,
2013-11-13 17:50:00,47.8,28.0,30.43,SSE,151,0.0,0.0,46,0.00,,,0.00,Wunderground v.1.15,2013-11-13 23:50:00,
2013-11-13 18:00:00,46.6,27.9,30.43,SSE,151,0.0,0.0,48,0.00,,,0.00,Wunderground v.1.15,2013-11-14 00:00:00,
2013-11-13 18:10:00,45.8,26.7,30.43,SSE,151,0.0,0.0,47,0.00,,,0.00,Wunderground v.1.15,2013-11-14 00:10:00,
2013-11-13 18:20:00,45.2,26.7,30.43,SSE,151,0.0,0.0,48,0.00,,,0.00,Wunderground v.1.15,2013-11-14 00:20:00,
2013-11-13 18:30:00,44.8,27.3,30.43,SSE,151,0.0,0.0,50,0.00,,,0.00,Wunderground v.1.15,2013-11-14 00:30:00,
2013-11-13 18:40:00,44.3,27.3,30.43,SSE,151,0.0,0.0,51,0.00,,,0.00,Wunderground v.1.15,2013-11-14 00:40:00,
2013-11-13 18:50:00,43.7,27.2,30.43,SSE,151,0.0,0.0,52,0.00,,,0.00,Wunderground v.1.15,2013-11-14 00:50:00,
2013-11-13 19:00:00,43.2,27.2,30.43,SSE,151,0.0,0.0,53,0.00,,,0.00,Wunderground v.1.15,2013-11-14 01:00:00,
2013-11-13 19:10:00,42.7,27.2,30.43,SSE,151,0.0,0.0,54,0.00,,,0.00,Wunderground v.1.15,2013-11-14 01:10:00,
2013-11-13 19:20:00,42.4,27.8,30.43,SSE,151,0.0,0.0,56,0.00,,,0.00,Wunderground v.1.15,2013-11-14 01:20:00,
2013-11-13 19:30:00,42.3,27.3,30.43,SSE,151,0.0,0.0,55,0.00,,,0.00,Wunderground v.1.15,2013-11-14 01:30:00,
2013-11-13 19:40:00,42.1,27.1,30.43,SSE,151,0.0,0.0,55,0.00,,,0.00,Wunderground v.1.15,2013-11-14 01:40:00,
2013-11-13 19:50:00,41.9,27.8,30.43,SSE,151,0.0,0.0,57,0.00,,,0.00,Wunderground v.1.15,2013-11-14 01:50:00,
2013-11-13 20:00:00,41.8,28.1,30.43,SSE,151,0.0,0.0,58,0.00,,,0.00,Wunderground v.1.15,2013-11-14 02:00:00,
2013-11-13 20:10:00,41.4,28.1,30.43,SSE,151,0.0,0.0,59,0.00,,,0.00,Wunderground v.1.15,2013-11-14 02:10:00,
2013-11-13 20:20:00,41.0,28.2,30.42,SSE,151,0.0,0.0,60,0.00,,,0.00,Wunderground v.1.15,2013-11-14 02:20:00,
2013-11-13 20:30:00,40.4,28.4,30.42,SSE,151,0.0,0.0,62,0.00,,,0.00,Wunderground v.1.15,2013-11-14 02:30:00,
2013-11-13 20:40:00,39.8,28.2,30.42,SSE,151,0.0,0.0,63,0.00,,,0.00,Wunderground v.1.15,2013-11-14 02:40:00,
2013-11-13 20:50:00,39.6,28.4,30.42,SSE,151,0.0,0.0,64,0.00,,,0.00,Wunderground v.1.15,2013-11-14 02:50:00,
2013-11-13 21:00:00,39.3,28.5,30.42,SSE,151,0.0,0.0,65,0.00,,,0.00,Wunderground v.1.15,2013-11-14 03:00:00,
2013-11-13 21:10:00,39.0,28.6,30.42,SSE,151,0.0,0.0,66,0.00,,,0.00,Wunderground v.1.15,2013-11-14 03:10:00,
2013-11-13 21:20:00,38.6,28.6,30.42,SSE,151,0.0,0.0,67,0.00,,,0.00,Wunderground v.1.15,2013-11-14 03:20:00,
2013-11-13 21:30:00,38.2,28.6,30.41,SSE,151,0.0,0.0,68,0.00,,,0.00,Wunderground v.1.15,2013-11-14 03:30:00,
2013-11-13 21:40:00,37.8,28.9,30.41,SSE,151,0.0,0.0,70,0.00,,,0.00,Wunderground v.1.15,2013-11-14 03:40:00,
2013-11-13 21:50:00,37.2,28.7,30.41,SSE,151,0.0,0.0,71,0.00,,,0.00,Wunderground v.1.15,2013-11-14 03:50:00,
2013-11-13 22:00:00,36.8,29.6,30.41,SSE,151,0.0,0.0,75,0.00,,,0.00,Wunderground v.1.15,2013-11-14 04:00:00,
2013-11-13 22:10:00,36.5,29.3,30.41,SSE,151,0.0,0.0,75,0.00,,,0.00,Wunderground v.1.15,2013-11-14 04:10:00,
2013-11-13 22:20:00,36.6,29.4,30.41,SSE,151,0.0,1.0,75,0.00,,,0.00,Wunderground v.1.15,2013-11-14 04:20:00,
2013-11-13 22:30:00,36.5,29.3,30.40,SSE,151,1.0,1.0,75,0.00,,,0.00,Wunderground v.1.15,2013-11-14 04:30:00,
2013-11-13 22:40:00,36.1,28.9,30.40,SSE,151,0.0,0.0,75,0.00,,,0.00,Wunderground v.1.15,2013-11-14 04:40:00,
2013-11-13 22:50:00,35.9,29.1,30.40,SSE,151,0.0,0.0,76,0.00,,,0.00,Wunderground v.1.15,2013-11-14 04:50:00,
2013-11-13 23:00:00,35.7,29.2,30.40,SSE,151,0.0,0.0,77,0.00,,,0.00,Wunderground v.1.15,2013-11-14 05:00:00,
2013-11-13 23:10:00,35.5,29.0,30.40,SSE,151,0.0,0.0,77,0.00,,,0.00,Wunderground v.1.15,2013-11-14 05:10:00,
2013-11-13 23:20:00,35.2,28.7,30.39,SSE,151,0.0,0.0,77,0.00,,,0.00,Wunderground v.1.15,2013-11-14 05:20:00,
2013-11-13 23:30:00,34.9,28.4,30.39,SSE,151,0.0,0.0,77,0.00,,,0.00,Wunderground v.1.15,2013-11-14 05:30:00,
2013-11-13 23:40:00,34.6,28.4,30.39,SSE,151,0.0,0.0,78,0.00,,,0.00,Wunderground v.1.15,2013-11-14 05:40:00,
2013-11-13 23:50:00,34.3,28.2,30.39,SSE,151,0.0,0.0,78,0.00,,,0.00,Wunderground v.1.15,2013-11-14 05:50:00,